メインページ
METAR-TAF:

METAR-TAF

空港 :

キト, エクアドル

マリスカル・スクレ国際空港

緯度: 0-06-48S, 経度: 78-21-31W, 海抜: 2400m

現時点の気象観測

当レポートは26分前の17:00(UTC)に作成
西/北西の風 8kt
気温 23°C
湿度 31%
気圧 1024 hPa
視程10km以上
高度4000ftの雲は散在している

METAR: SEQM 231700Z 30008KT 9999 SCT040 23/05 Q1024 NOSIG RMK A3024

時間: 12:26 (17:26 UTC)

予報

当レポートは7時間56分前の09:30(UTC)に作成
予報は23日の 12時(UTC)から 24日の 12時(UTC)まで有効
変向風 3kt
視程10km以上
高度3000ftの雲は散在している
23日の 1800時(UTC)から
の風 15kt
視程10km以上
高度3000ftの千切れ雲あり
高度10000ftの雲は散在している
23日の 20時(UTC)から 23日の 23時(UTC)まで一時的に
にわか雨
24日の 0000時(UTC)から
北東の風 4kt
視程10km以上
高度3000ftの雲は散在している
高度10000ftの雲は散在している
24日の 0600時(UTC)から
の風 kt
視程10km以上
高度3000ftの雲は散在している

TAF: SEQM 230930Z 2312/2412 VRB03KT 9999 SCT030 FM231800 36015KT 9999 BKN030 SCT100 TEMPO 2320/2323 SHRA FM240000 04004KT 9999 SCT030 SCT100 FM240600 00000KT 9999 SCT030 TX25/2319Z TN08/2411Z

4,000以上の空港の気象観測と天気予報(METAR報とTAF報)

利用可能な観測所は地図上に黄色い丸と赤い丸で示す。

丸の上にカーソルを重ねると観測所名を参照できる。

次にクリックすると気象観測と天気予報を参照できる。

マップの切り替え:黒色「×」印の緑ボタンをクリックして拡大、「-」印の緑ボタンをクリックして縮小、緑色の三角印をクリックして隣りの地図に切り替え


METAR-TAF: